createdAt,value
2018-02-07T00:00:59.192Z,17.22
2018-02-07T00:01:58.597Z,17.23
2018-02-07T00:02:59.056Z,17.23
2018-02-07T00:03:58.480Z,17.23
2018-02-07T00:04:58.911Z,17.23
2018-02-07T00:05:58.351Z,17.22
2018-02-07T00:06:58.784Z,17.21
2018-02-07T00:07:59.223Z,17.21
2018-02-07T00:08:58.667Z,17.19
2018-02-07T00:09:59.154Z,17.2
2018-02-07T00:10:58.557Z,17.18
2018-02-07T00:11:59.004Z,17.2
2018-02-07T00:12:58.439Z,17.17
2018-02-07T00:13:58.964Z,17.15
2018-02-07T00:15:58.617Z,17.15
2018-02-07T00:16:59.066Z,17.16
2018-02-07T00:17:58.688Z,17.14
2018-02-07T00:18:59.134Z,17.14
2018-02-07T00:19:58.600Z,17.15
2018-02-07T00:20:59.046Z,17.15
2018-02-07T00:21:58.456Z,17.15
2018-02-07T00:22:58.912Z,17.14
2018-02-07T00:23:58.337Z,17.14
2018-02-07T00:24:58.760Z,17.12
2018-02-07T00:25:59.201Z,17.12
2018-02-07T00:26:58.625Z,17.12
2018-02-07T00:27:59.058Z,17.1
2018-02-07T00:28:58.473Z,17.11
2018-02-07T00:29:58.894Z,17.13
2018-02-07T00:30:58.336Z,17.12
2018-02-07T00:31:58.760Z,17.1
2018-02-07T00:32:59.191Z,17.11
2018-02-07T00:33:58.714Z,17.1
2018-02-07T00:34:59.129Z,17.08
2018-02-07T00:35:58.579Z,17.1
2018-02-07T00:36:59.044Z,17.08
2018-02-07T00:37:58.463Z,17.09
2018-02-07T00:38:58.906Z,17.09
2018-02-07T00:39:58.388Z,17.09
2018-02-07T00:40:58.804Z,17.1
2018-02-07T00:41:59.219Z,17.08
2018-02-07T00:42:58.656Z,17.08
2018-02-07T00:43:59.102Z,17.09
2018-02-07T00:44:58.538Z,17.06
2018-02-07T00:45:58.954Z,17.08
2018-02-07T00:46:58.431Z,17.09
2018-02-07T00:47:58.877Z,17.09
2018-02-07T00:48:58.363Z,17.06
2018-02-07T00:49:58.811Z,17.06
2018-02-07T00:50:59.238Z,17.07
2018-02-07T00:51:58.660Z,17.06
2018-02-07T00:52:59.051Z,17.06
2018-02-07T00:53:58.487Z,17.07
2018-02-07T00:54:58.951Z,17.04
2018-02-07T00:55:58.379Z,17.03
2018-02-07T00:56:58.833Z,17.02
2018-02-07T00:57:58.355Z,17.01
2018-02-07T00:58:58.879Z,17.01
2018-02-07T00:59:58.351Z,17.01
2018-02-07T01:00:58.928Z,17.01
2018-02-07T01:01:58.406Z,17.01
2018-02-07T01:02:58.850Z,17
2018-02-07T01:03:58.265Z,17
2018-02-07T01:04:58.762Z,17.01
2018-02-07T01:05:59.182Z,17
2018-02-07T01:06:58.608Z,17
2018-02-07T01:07:59.055Z,16.97
2018-02-07T01:08:58.578Z,17
2018-02-07T01:09:59.039Z,16.99
2018-02-07T01:10:58.493Z,16.98
2018-02-07T01:11:58.941Z,17
2018-02-07T01:12:58.382Z,17
2018-02-07T01:13:58.808Z,17.01
2018-02-07T01:14:59.276Z,17.01
2018-02-07T01:15:58.748Z,16.98
2018-02-07T01:16:59.164Z,16.99
2018-02-07T01:17:58.625Z,16.97
2018-02-07T01:18:58.281Z,16.97
2018-02-07T01:19:58.730Z,16.97
2018-02-07T01:20:59.207Z,16.97
2018-02-07T01:21:58.618Z,16.97
2018-02-07T01:22:59.055Z,16.95
2018-02-07T01:23:58.534Z,16.94
2018-02-07T01:24:59.014Z,16.95
2018-02-07T01:25:58.436Z,16.95
2018-02-07T01:26:58.917Z,16.95
2018-02-07T01:27:58.344Z,16.93
2018-02-07T01:28:58.770Z,16.93
2018-02-07T01:29:59.190Z,16.92
2018-02-07T01:30:58.684Z,16.94
2018-02-07T01:31:59.101Z,16.91
2018-02-07T01:32:58.570Z,16.92
2018-02-07T01:33:59.019Z,16.92
2018-02-07T01:34:58.452Z,16.9
2018-02-07T01:35:58.911Z,16.93
2018-02-07T01:36:58.357Z,16.93
2018-02-07T01:37:58.776Z,16.88
2018-02-07T01:38:59.222Z,16.89
2018-02-07T01:39:58.650Z,16.9
2018-02-07T01:40:59.100Z,16.89
2018-02-07T01:41:58.523Z,16.89
2018-02-07T01:42:58.951Z,16.87
2018-02-07T01:43:58.387Z,16.86
2018-02-07T01:44:58.845Z,16.88
2018-02-07T01:45:58.313Z,16.89
2018-02-07T01:46:58.742Z,16.86
2018-02-07T01:47:59.156Z,16.87
2018-02-07T01:48:58.568Z,16.88
2018-02-07T01:49:59.007Z,16.9
2018-02-07T01:50:58.452Z,16.89
2018-02-07T01:51:58.875Z,16.88
2018-02-07T01:52:58.349Z,16.86
2018-02-07T01:53:58.701Z,16.84
2018-02-07T01:54:59.121Z,16.84
2018-02-07T01:55:58.655Z,16.83
2018-02-07T01:56:59.113Z,16.86
2018-02-07T01:57:58.560Z,16.83
2018-02-07T01:58:58.985Z,16.83
2018-02-07T01:59:58.407Z,16.84
2018-02-07T02:00:58.986Z,16.84
2018-02-07T02:01:58.412Z,16.82
2018-02-07T02:02:58.907Z,16.81
2018-02-07T02:03:58.315Z,16.81
2018-02-07T02:04:58.743Z,16.8
2018-02-07T02:05:59.198Z,16.82
2018-02-07T02:06:58.626Z,16.81
2018-02-07T02:07:59.051Z,16.83
2018-02-07T02:08:58.469Z,16.81
2018-02-07T02:09:58.881Z,16.81
2018-02-07T02:10:58.346Z,16.8
2018-02-07T02:11:58.775Z,16.8
2018-02-07T02:12:59.207Z,16.78
2018-02-07T02:13:58.622Z,16.79
2018-02-07T02:14:59.046Z,16.77
2018-02-07T02:15:58.471Z,16.77
2018-02-07T02:16:58.917Z,16.78
2018-02-07T02:17:58.350Z,16.79
2018-02-07T02:18:58.814Z,16.78
2018-02-07T02:19:58.448Z,16.79
2018-02-07T02:20:58.886Z,16.76
2018-02-07T02:21:58.344Z,16.79
2018-02-07T02:22:58.755Z,16.79
2018-02-07T02:23:59.180Z,16.77
2018-02-07T02:24:58.634Z,16.78
2018-02-07T02:25:59.066Z,16.77
2018-02-07T02:26:58.528Z,16.78
2018-02-07T02:27:58.990Z,16.77
2018-02-07T02:28:58.406Z,16.76
2018-02-07T02:29:58.858Z,16.73
2018-02-07T02:30:58.305Z,16.75
2018-02-07T02:31:58.770Z,16.75
2018-02-07T02:32:59.217Z,16.77
2018-02-07T02:33:58.707Z,16.76
2018-02-07T02:34:59.168Z,16.76
2018-02-07T02:35:58.588Z,16.77
2018-02-07T02:36:59.053Z,16.78
2018-02-07T02:37:58.493Z,16.74
2018-02-07T02:38:58.946Z,16.74
2018-02-07T02:39:58.415Z,16.72
2018-02-07T02:40:58.843Z,16.7
2018-02-07T02:41:58.306Z,16.74
2018-02-07T02:42:58.736Z,16.72
2018-02-07T02:43:59.158Z,16.73
2018-02-07T02:44:58.587Z,16.73
2018-02-07T02:45:59.027Z,16.71
2018-02-07T02:46:58.470Z,16.75
2018-02-07T02:47:58.920Z,16.73
2018-02-07T02:48:58.339Z,16.71
2018-02-07T02:49:58.730Z,16.71
2018-02-07T02:50:59.198Z,16.71
2018-02-07T02:51:58.597Z,16.72
2018-02-07T02:52:59.039Z,16.69
2018-02-07T02:53:58.462Z,16.7
2018-02-07T02:54:58.864Z,16.7
2018-02-07T02:55:58.282Z,16.7
2018-02-07T02:56:58.711Z,16.69
2018-02-07T02:57:59.348Z,16.71
2018-02-07T02:58:58.887Z,16.69
2018-02-07T02:59:58.321Z,16.68
2018-02-07T03:00:58.752Z,16.68
2018-02-07T03:01:59.160Z,16.65
2018-02-07T03:02:58.616Z,16.66
2018-02-07T03:03:59.050Z,16.69
2018-02-07T03:04:58.473Z,16.71
2018-02-07T03:05:58.952Z,16.7
2018-02-07T03:06:58.396Z,16.67
2018-02-07T03:07:58.989Z,16.69
2018-02-07T03:08:58.412Z,16.67
2018-02-07T03:09:58.839Z,16.68
2018-02-07T03:10:58.283Z,16.67
2018-02-07T03:11:58.718Z,16.66
2018-02-07T03:12:59.183Z,16.66
2018-02-07T03:13:58.651Z,16.63
2018-02-07T03:14:59.061Z,16.71
2018-02-07T03:15:58.484Z,16.7
2018-02-07T03:16:58.922Z,16.68
2018-02-07T03:17:58.373Z,16.69
2018-02-07T03:18:58.791Z,16.69
2018-02-07T03:19:58.211Z,16.67
2018-02-07T03:20:58.860Z,16.66
2018-02-07T03:21:58.382Z,16.68
2018-02-07T03:22:58.814Z,16.62
2018-02-07T03:23:58.241Z,16.66
2018-02-07T03:24:58.660Z,16.63
2018-02-07T03:25:59.078Z,16.64
2018-02-07T03:26:58.481Z,16.64
2018-02-07T03:27:58.975Z,16.64
2018-02-07T03:28:58.406Z,16.63
2018-02-07T03:29:58.838Z,16.6
2018-02-07T03:30:58.249Z,16.58
2018-02-07T03:31:58.681Z,16.61
2018-02-07T03:32:59.143Z,16.6
2018-02-07T03:33:58.566Z,16.6
2018-02-07T03:34:58.983Z,16.62
2018-02-07T03:35:58.400Z,16.61
2018-02-07T03:36:58.867Z,16.6
2018-02-07T03:37:58.312Z,16.62
2018-02-07T03:38:58.741Z,16.6
2018-02-07T03:39:59.170Z,16.57
2018-02-07T03:40:58.678Z,16.58
2018-02-07T03:41:59.099Z,16.58
2018-02-07T03:42:58.550Z,16.58
2018-02-07T03:43:58.977Z,16.6
2018-02-07T03:44:58.393Z,16.58
2018-02-07T03:45:58.803Z,16.58
2018-02-07T03:46:58.217Z,16.57
2018-02-07T03:47:58.639Z,16.6
2018-02-07T03:48:59.134Z,16.56
2018-02-07T03:49:58.575Z,16.58
2018-02-07T03:50:58.993Z,16.59
2018-02-07T03:51:58.415Z,16.58
2018-02-07T03:52:58.908Z,16.59
2018-02-07T03:53:58.395Z,16.57
2018-02-07T03:54:58.815Z,16.57
2018-02-07T03:55:58.238Z,16.58
2018-02-07T03:56:58.677Z,16.58
2018-02-07T03:57:59.093Z,16.56
2018-02-07T03:58:58.534Z,16.56
2018-02-07T03:59:58.949Z,16.58
2018-02-07T04:00:58.367Z,16.57
2018-02-07T04:01:58.652Z,16.58
2018-02-07T04:02:59.080Z,16.57
2018-02-07T04:03:58.531Z,16.57
2018-02-07T04:04:58.946Z,16.57
2018-02-07T04:05:58.374Z,16.55
2018-02-07T04:06:58.811Z,16.57
2018-02-07T04:07:58.271Z,16.55
2018-02-07T04:08:58.752Z,16.56
2018-02-07T04:09:59.194Z,16.59
2018-02-07T04:10:58.613Z,16.57
2018-02-07T04:11:59.058Z,16.54
2018-02-07T04:12:58.475Z,16.51
2018-02-07T04:13:58.923Z,16.51
2018-02-07T04:14:58.401Z,16.53
2018-02-07T04:15:58.837Z,16.52
2018-02-07T04:16:58.249Z,16.51
2018-02-07T04:17:58.698Z,16.53
2018-02-07T04:18:59.115Z,16.54
2018-02-07T04:19:58.722Z,16.54
2018-02-07T04:20:59.163Z,16.5
2018-02-07T04:21:58.829Z,16.51
2018-02-07T04:22:58.270Z,16.5
2018-02-07T04:23:58.715Z,16.49
2018-02-07T04:24:59.187Z,16.5
2018-02-07T04:25:58.610Z,16.48
2018-02-07T04:26:59.029Z,16.48
2018-02-07T04:27:58.473Z,16.48
2018-02-07T04:28:58.887Z,16.48
2018-02-07T04:29:58.340Z,16.48
2018-02-07T04:30:58.797Z,16.52
2018-02-07T04:31:58.214Z,16.52
2018-02-07T04:32:58.652Z,16.47
2018-02-07T04:33:59.070Z,16.49
2018-02-07T04:34:58.482Z,16.49
2018-02-07T04:35:58.938Z,16.48
2018-02-07T04:36:58.348Z,16.47
2018-02-07T04:37:58.795Z,16.47
2018-02-07T04:38:58.215Z,16.47
2018-02-07T04:39:58.760Z,16.47
2018-02-07T04:40:58.195Z,16.45
2018-02-07T04:41:58.604Z,16.48
2018-02-07T04:42:59.037Z,16.42
2018-02-07T04:43:58.486Z,16.42
2018-02-07T04:44:58.880Z,16.44
2018-02-07T04:45:58.295Z,16.4
2018-02-07T04:46:58.722Z,16.42
2018-02-07T04:47:58.165Z,16.42
2018-02-07T04:48:58.636Z,16.41
2018-02-07T04:49:59.090Z,16.4
2018-02-07T04:50:58.563Z,16.39
2018-02-07T04:51:58.982Z,16.38
2018-02-07T04:52:58.455Z,16.37
2018-02-07T04:53:58.900Z,16.38
2018-02-07T04:54:58.308Z,16.4
2018-02-07T04:55:58.774Z,16.39
2018-02-07T04:56:58.231Z,16.38
2018-02-07T04:57:58.682Z,16.38
2018-02-07T04:58:59.115Z,16.39
2018-02-07T04:59:58.640Z,16.41
2018-02-07T05:00:59.171Z,16.42
2018-02-07T05:01:58.607Z,16.41
2018-02-07T05:02:59.080Z,16.44
2018-02-07T05:03:58.606Z,16.42
2018-02-07T05:04:59.067Z,16.42
2018-02-07T05:05:58.493Z,16.43
2018-02-07T05:06:58.935Z,16.43
2018-02-07T05:07:58.380Z,16.43
2018-02-07T05:08:58.817Z,16.43
2018-02-07T05:09:58.307Z,16.42
2018-02-07T05:10:58.946Z,16.43
2018-02-07T05:11:58.388Z,16.44
2018-02-07T05:12:58.820Z,16.44
2018-02-07T05:13:58.259Z,16.45
2018-02-07T05:14:58.694Z,16.47
2018-02-07T05:15:59.147Z,16.48
2018-02-07T05:16:58.579Z,16.48
2018-02-07T05:17:59.012Z,16.5
2018-02-07T05:18:58.587Z,16.5
2018-02-07T05:19:59.005Z,16.51
2018-02-07T05:20:58.508Z,16.52
2018-02-07T05:21:58.955Z,16.52
2018-02-07T05:22:58.661Z,16.52
2018-02-07T05:23:58.908Z,16.53
2018-02-07T05:24:58.321Z,16.55
2018-02-07T05:25:58.766Z,16.54
2018-02-07T05:26:58.308Z,16.56
2018-02-07T05:28:59.053Z,16.56
2018-02-07T05:29:58.487Z,16.58
2018-02-07T05:30:58.929Z,16.57
2018-02-07T05:31:58.352Z,16.58
2018-02-07T05:32:58.864Z,16.59
2018-02-07T05:33:58.230Z,16.6
2018-02-07T05:34:58.672Z,16.61
2018-02-07T05:35:59.104Z,16.63
2018-02-07T05:36:58.529Z,16.64
2018-02-07T05:37:59.099Z,16.63
2018-02-07T05:38:58.523Z,16.64
2018-02-07T05:39:58.960Z,16.64
2018-02-07T05:40:58.396Z,16.66
2018-02-07T05:41:58.848Z,16.67
2018-02-07T05:42:58.311Z,16.69
2018-02-07T05:43:58.731Z,16.69
2018-02-07T05:44:58.171Z,16.7
2018-02-07T05:45:58.609Z,16.72
2018-02-07T05:46:59.060Z,16.72
2018-02-07T05:47:58.470Z,16.72
2018-02-07T05:48:58.926Z,16.73
2018-02-07T05:49:58.380Z,16.73
2018-02-07T05:50:58.853Z,16.75
2018-02-07T05:51:58.285Z,16.77
2018-02-07T05:52:58.746Z,16.78
2018-02-07T05:53:58.252Z,16.81
2018-02-07T05:54:58.672Z,16.81
2018-02-07T05:55:59.092Z,16.82
2018-02-07T05:56:58.511Z,16.83
2018-02-07T05:57:58.933Z,16.83
2018-02-07T05:58:58.385Z,16.86
2018-02-07T05:59:58.814Z,16.87
2018-02-07T06:00:58.268Z,16.89
2018-02-07T06:01:58.698Z,16.89
2018-02-07T06:02:59.127Z,16.92
2018-02-07T06:03:58.567Z,16.93
2018-02-07T06:04:58.998Z,16.94
2018-02-07T06:05:58.424Z,16.96
2018-02-07T06:06:58.855Z,16.98
2018-02-07T06:07:58.287Z,16.99
2018-02-07T06:08:58.710Z,17.02
2018-02-07T06:09:59.152Z,17.02
2018-02-07T06:10:58.598Z,17.04
2018-02-07T06:11:59.029Z,17.06
2018-02-07T06:12:58.450Z,17.07
2018-02-07T06:13:58.917Z,17.08
2018-02-07T06:14:58.394Z,17.11
2018-02-07T06:15:58.824Z,17.11
2018-02-07T06:16:58.253Z,17.13
2018-02-07T06:17:58.689Z,17.15
2018-02-07T06:18:59.128Z,17.15
2018-02-07T06:19:58.573Z,17.18
2018-02-07T06:20:59.075Z,17.18
2018-02-07T06:21:58.515Z,17.19
2018-02-07T06:22:58.938Z,17.21
2018-02-07T06:23:58.561Z,17.22
2018-02-07T06:24:58.984Z,17.23
2018-02-07T06:25:58.416Z,17.25
2018-02-07T06:26:58.842Z,17.25
2018-02-07T06:27:58.296Z,17.27
2018-02-07T06:28:58.906Z,17.29
2018-02-07T06:29:58.311Z,17.29
2018-02-07T06:30:58.740Z,17.3
2018-02-07T06:31:58.182Z,17.32
2018-02-07T06:32:58.619Z,17.33
2018-02-07T06:33:59.091Z,17.34
2018-02-07T06:34:58.538Z,17.35
2018-02-07T06:35:58.971Z,17.36
2018-02-07T06:36:58.388Z,17.38
2018-02-07T06:37:58.811Z,17.38
2018-02-07T06:38:58.277Z,17.41
2018-02-07T06:39:58.713Z,17.42
2018-02-07T06:40:58.150Z,17.41
2018-02-07T06:41:58.587Z,17.42
2018-02-07T06:42:59.013Z,17.44
2018-02-07T06:43:58.450Z,17.45
2018-02-07T06:44:58.881Z,17.46
2018-02-07T06:45:58.313Z,17.46
2018-02-07T06:46:58.759Z,17.47
2018-02-07T06:47:58.185Z,17.49
2018-02-07T06:48:58.626Z,17.5
2018-02-07T06:49:59.094Z,17.5
2018-02-07T06:50:58.512Z,17.51
2018-02-07T06:51:59.214Z,17.52
2018-02-07T06:52:58.577Z,17.53
2018-02-07T06:53:59.059Z,17.54
2018-02-07T06:54:58.500Z,17.55
2018-02-07T06:55:58.926Z,17.56
2018-02-07T06:56:58.391Z,17.57
2018-02-07T06:57:58.811Z,17.58
2018-02-07T06:58:58.265Z,17.59
2018-02-07T06:59:58.795Z,17.59
2018-02-07T07:00:58.227Z,17.61
2018-02-07T07:01:58.722Z,17.61
2018-02-07T07:02:58.160Z,17.62
2018-02-07T07:03:58.673Z,17.63
2018-02-07T07:04:58.187Z,17.64
2018-02-07T07:05:58.621Z,17.65
2018-02-07T07:06:59.312Z,17.66
2018-02-07T07:07:58.732Z,17.66
2018-02-07T07:08:58.154Z,17.66
2018-02-07T07:09:58.587Z,17.68
2018-02-07T07:10:59.011Z,17.68
2018-02-07T07:11:58.484Z,17.68
2018-02-07T07:12:58.906Z,17.68
2018-02-07T07:13:58.347Z,17.7
2018-02-07T07:14:58.796Z,17.69
2018-02-07T07:15:58.335Z,17.69
2018-02-07T07:16:58.787Z,17.69
2018-02-07T07:17:58.215Z,17.69
2018-02-07T07:18:58.635Z,17.69
2018-02-07T07:19:58.940Z,17.69
2018-02-07T07:20:58.356Z,17.7
2018-02-07T07:21:58.828Z,17.69
2018-02-07T07:22:58.244Z,17.69
2018-02-07T07:23:58.680Z,17.68
2018-02-07T07:24:58.366Z,17.68
2018-02-07T07:25:58.783Z,17.7
2018-02-07T07:26:58.224Z,17.69
2018-02-07T07:27:58.648Z,17.69
2018-02-07T07:28:59.085Z,17.68
2018-02-07T07:29:58.527Z,17.68
2018-02-07T07:30:58.972Z,17.68
2018-02-07T07:31:58.409Z,17.69
2018-02-07T07:32:58.856Z,17.67
2018-02-07T07:33:58.289Z,17.68
2018-02-07T07:34:58.739Z,17.67
2018-02-07T07:36:58.353Z,17.66
2018-02-07T07:37:58.814Z,17.64
2018-02-07T07:38:58.247Z,17.64
2018-02-07T07:39:58.686Z,17.63
2018-02-07T07:40:58.116Z,17.63
2018-02-07T07:41:58.531Z,17.61
2018-02-07T07:42:58.955Z,17.62
2018-02-07T07:43:58.398Z,17.62
2018-02-07T07:44:58.836Z,17.61
2018-02-07T07:45:58.259Z,17.6
2018-02-07T07:46:58.683Z,17.6
2018-02-07T07:47:58.114Z,17.58
2018-02-07T07:48:58.561Z,17.58
2018-02-07T07:49:59.112Z,17.56
2018-02-07T07:50:58.533Z,17.57
2018-02-07T07:51:58.979Z,17.56
2018-02-07T07:52:58.409Z,17.56
2018-02-07T07:54:59.154Z,17.59
2018-02-07T07:55:58.622Z,17.58
2018-02-07T07:56:59.032Z,17.58
2018-02-07T07:57:58.455Z,17.59
2018-02-07T07:58:58.894Z,17.58
2018-02-07T07:59:58.357Z,17.59
2018-02-07T08:00:58.904Z,17.61
2018-02-07T08:01:58.488Z,17.6
2018-02-07T08:02:58.892Z,17.6
2018-02-07T08:03:58.341Z,17.61
2018-02-07T08:04:58.807Z,17.61
2018-02-07T08:06:58.568Z,17.61
2018-02-07T08:07:59.013Z,17.61
2018-02-07T08:08:58.427Z,17.65
2018-02-07T08:09:58.881Z,17.65
2018-02-07T08:10:58.345Z,17.63
2018-02-07T08:11:58.792Z,17.61
2018-02-07T08:12:58.278Z,17.58
2018-02-07T08:13:58.717Z,17.56
2018-02-07T08:14:58.170Z,17.55
2018-02-07T08:15:58.630Z,17.54
2018-02-07T08:16:59.054Z,17.53
2018-02-07T08:17:58.516Z,17.51
2018-02-07T08:18:58.986Z,17.52
2018-02-07T08:19:58.440Z,17.51
2018-02-07T08:20:58.896Z,17.49
2018-02-07T08:21:58.312Z,17.5
2018-02-07T08:22:58.762Z,17.49
2018-02-07T08:23:58.212Z,17.47
2018-02-07T08:24:58.675Z,17.47
2018-02-07T08:25:58.335Z,17.45
2018-02-07T08:26:58.798Z,17.44
2018-02-07T08:27:58.497Z,17.44
2018-02-07T08:28:58.909Z,17.43
2018-02-07T08:29:58.319Z,17.41
2018-02-07T08:30:58.790Z,17.4
2018-02-07T08:31:58.260Z,17.39
2018-02-07T08:32:58.785Z,17.4
2018-02-07T08:33:58.230Z,17.38
2018-02-07T08:34:58.651Z,17.38
2018-02-07T08:35:58.125Z,17.38
2018-02-07T08:36:58.568Z,17.39
2018-02-07T08:37:59.131Z,17.36
2018-02-07T08:38:58.558Z,17.35
2018-02-07T08:39:59.025Z,17.36
2018-02-07T08:40:58.466Z,17.35
2018-02-07T08:41:58.920Z,17.34
2018-02-07T08:42:58.394Z,17.33
2018-02-07T08:43:58.805Z,17.32
2018-02-07T08:44:58.255Z,17.32
2018-02-07T08:45:58.688Z,17.32
2018-02-07T08:46:58.110Z,17.34
2018-02-07T08:47:58.572Z,17.32
2018-02-07T08:48:59.124Z,17.31
2018-02-07T08:49:58.570Z,17.31
2018-02-07T08:50:59.056Z,17.32
2018-02-07T08:51:58.512Z,17.29
2018-02-07T08:52:58.964Z,17.3
2018-02-07T08:53:58.429Z,17.31
2018-02-07T08:54:58.858Z,17.32
2018-02-07T08:55:58.364Z,17.33
2018-02-07T08:56:58.896Z,17.34
2018-02-07T08:57:58.354Z,17.34
2018-02-07T08:58:58.809Z,17.32
2018-02-07T08:59:58.250Z,17.33
2018-02-07T09:00:58.740Z,17.32
2018-02-07T09:01:58.179Z,17.32
2018-02-07T09:02:58.627Z,17.33
2018-02-07T09:03:59.045Z,17.31
2018-02-07T09:04:58.629Z,17.31
2018-02-07T09:05:59.060Z,17.31
2018-02-07T09:06:58.512Z,17.31
2018-02-07T09:07:58.946Z,17.31
2018-02-07T09:08:58.417Z,17.31
2018-02-07T09:09:58.923Z,17.33
2018-02-07T09:10:58.586Z,17.33
2018-02-07T09:11:59.003Z,17.32
2018-02-07T09:12:58.449Z,17.34
2018-02-07T09:13:58.909Z,17.33
2018-02-07T09:14:58.361Z,17.33
2018-02-07T09:15:58.835Z,17.34
2018-02-07T09:16:58.288Z,17.35
2018-02-07T09:17:58.726Z,17.35
2018-02-07T09:18:58.132Z,17.35
2018-02-07T09:19:58.589Z,17.35
2018-02-07T09:20:59.028Z,17.35
2018-02-07T09:21:58.477Z,17.36
2018-02-07T09:22:58.946Z,17.36
2018-02-07T09:23:58.408Z,17.36
2018-02-07T09:24:58.844Z,17.36
2018-02-07T09:25:58.301Z,17.37
2018-02-07T09:26:58.974Z,17.38
2018-02-07T09:27:58.488Z,17.38
2018-02-07T09:28:58.943Z,17.39
2018-02-07T09:30:58.830Z,17.38
2018-02-07T09:31:58.286Z,17.39
2018-02-07T09:32:58.780Z,17.39
2018-02-07T09:33:58.210Z,17.39
2018-02-07T09:34:58.670Z,17.41
2018-02-07T09:35:58.145Z,17.4
2018-02-07T09:36:58.576Z,17.41
2018-02-07T09:37:59.072Z,17.41
2018-02-07T09:38:58.494Z,17.43
2018-02-07T09:39:58.955Z,17.42
2018-02-07T09:40:58.428Z,17.43
2018-02-07T09:41:58.871Z,17.43
2018-02-07T09:42:58.354Z,17.45
2018-02-07T09:43:58.775Z,17.44
2018-02-07T09:44:58.195Z,17.45
2018-02-07T09:45:58.623Z,17.46
2018-02-07T09:46:59.049Z,17.47
2018-02-07T09:47:58.494Z,17.46
2018-02-07T09:48:58.944Z,17.48
2018-02-07T09:49:58.413Z,17.49
2018-02-07T09:50:58.889Z,17.5
2018-02-07T09:51:58.324Z,17.49
2018-02-07T09:52:58.767Z,17.48
2018-02-07T09:53:58.259Z,17.49
2018-02-07T09:54:58.695Z,17.5
2018-02-07T09:55:58.189Z,17.51
2018-02-07T09:56:58.613Z,17.51
2018-02-07T09:57:59.060Z,17.51
2018-02-07T09:58:58.500Z,17.53
2018-02-07T09:59:58.962Z,17.54
2018-02-07T10:00:58.442Z,17.54
2018-02-07T10:01:58.924Z,17.54
2018-02-07T10:02:58.404Z,17.56
2018-02-07T10:03:58.843Z,17.55
2018-02-07T10:04:58.294Z,17.56
2018-02-07T10:05:58.719Z,17.56
2018-02-07T10:06:58.276Z,17.56
2018-02-07T10:07:58.732Z,17.57
2018-02-07T10:08:58.209Z,17.58
2018-02-07T10:09:58.657Z,17.6
2018-02-07T10:10:58.121Z,17.6
2018-02-07T10:11:58.565Z,17.61
2018-02-07T10:12:59.007Z,17.61
2018-02-07T10:13:58.601Z,17.61
2018-02-07T10:14:58.161Z,17.61
2018-02-07T10:15:58.614Z,17.62
2018-02-07T10:16:58.062Z,17.63
2018-02-07T10:17:58.513Z,17.64
2018-02-07T10:18:58.986Z,17.63
2018-02-07T10:19:58.435Z,17.65
2018-02-07T10:20:58.889Z,17.64
2018-02-07T10:21:58.289Z,17.63
2018-02-07T10:22:58.830Z,17.65
2018-02-07T10:23:58.262Z,17.64
2018-02-07T10:24:58.712Z,17.65
2018-02-07T10:25:58.192Z,17.65
2018-02-07T10:26:58.841Z,17.65
2018-02-07T10:27:58.252Z,17.65
2018-02-07T10:28:58.680Z,17.65
2018-02-07T10:29:58.119Z,17.65
2018-02-07T10:30:58.695Z,17.66
2018-02-07T10:31:58.113Z,17.66
2018-02-07T10:32:58.525Z,17.65
2018-02-07T10:33:58.994Z,17.67
2018-02-07T10:34:58.475Z,17.66
2018-02-07T10:35:58.926Z,17.67
2018-02-07T10:36:58.436Z,17.67
2018-02-07T10:37:58.881Z,17.67
2018-02-07T10:38:58.319Z,17.69
2018-02-07T10:39:58.767Z,17.68
2018-02-07T10:40:58.215Z,17.7
2018-02-07T10:41:58.702Z,17.7
2018-02-07T10:42:58.144Z,17.71
2018-02-07T10:43:58.605Z,17.72
2018-02-07T10:44:59.047Z,17.72
2018-02-07T10:45:58.518Z,17.73
2018-02-07T10:46:58.972Z,17.74
2018-02-07T10:47:58.424Z,17.75
2018-02-07T10:48:58.846Z,17.75
2018-02-07T10:49:58.302Z,17.76
2018-02-07T10:50:58.733Z,17.77
2018-02-07T10:51:58.192Z,17.77
2018-02-07T10:52:58.693Z,17.78
2018-02-07T10:53:58.160Z,17.79
2018-02-07T10:54:58.614Z,17.79
2018-02-07T10:55:58.062Z,17.79
2018-02-07T10:56:58.544Z,17.8
2018-02-07T10:57:59.025Z,17.81
2018-02-07T10:58:58.449Z,17.81
2018-02-07T10:59:58.886Z,17.82
2018-02-07T11:00:58.340Z,17.82
2018-02-07T11:01:58.810Z,17.83
2018-02-07T11:02:58.277Z,17.84
2018-02-07T11:03:58.692Z,17.85
2018-02-07T11:04:58.140Z,17.85
2018-02-07T11:05:58.596Z,17.86
2018-02-07T11:06:59.020Z,17.86
2018-02-07T11:07:58.462Z,17.88
2018-02-07T11:08:58.931Z,17.87
2018-02-07T11:09:58.505Z,17.89
2018-02-07T11:10:58.943Z,17.88
2018-02-07T11:11:58.344Z,17.89
2018-02-07T11:12:58.803Z,17.89
2018-02-07T11:13:58.272Z,17.9
2018-02-07T11:14:58.737Z,17.9
2018-02-07T11:15:58.185Z,17.89
2018-02-07T11:16:58.598Z,17.91
2018-02-07T11:17:58.135Z,17.91
2018-02-07T11:18:58.682Z,17.91
2018-02-07T11:19:58.109Z,17.92
2018-02-07T11:20:58.585Z,17.93
2018-02-07T11:21:59.018Z,17.93
2018-02-07T11:22:58.454Z,17.93
2018-02-07T11:23:58.930Z,17.94
2018-02-07T11:24:58.403Z,17.94
2018-02-07T11:25:58.853Z,17.95
2018-02-07T11:26:58.279Z,17.94
2018-02-07T11:27:58.978Z,17.95
2018-02-07T11:28:58.443Z,17.95
2018-02-07T11:29:58.874Z,17.94
2018-02-07T11:30:58.302Z,17.95
2018-02-07T11:31:58.768Z,17.95
2018-02-07T11:32:58.197Z,17.95
2018-02-07T11:33:58.655Z,17.96
2018-02-07T11:34:58.102Z,17.96
2018-02-07T11:35:58.540Z,17.96
2018-02-07T11:36:58.968Z,17.96
2018-02-07T11:37:58.417Z,17.97
2018-02-07T11:38:59.149Z,17.96
2018-02-07T11:39:58.634Z,17.97
2018-02-07T11:40:58.095Z,17.94
2018-02-07T11:41:58.546Z,17.96
2018-02-07T11:42:58.965Z,18
2018-02-07T11:43:58.444Z,17.98
2018-02-07T11:44:58.890Z,17.98
2018-02-07T11:45:58.340Z,17.99
2018-02-07T11:46:58.801Z,17.96
2018-02-07T11:47:58.266Z,17.95
2018-02-07T11:48:58.739Z,17.97
2018-02-07T11:49:58.166Z,17.96
2018-02-07T11:50:58.648Z,17.94
2018-02-07T11:51:58.069Z,17.96
2018-02-07T11:52:58.463Z,17.95
2018-02-07T11:53:58.908Z,17.95
2018-02-07T11:54:58.429Z,17.95
2018-02-07T11:55:58.882Z,17.93
2018-02-07T11:56:58.329Z,17.94
2018-02-07T11:57:58.795Z,17.94
2018-02-07T11:58:58.262Z,17.94
2018-02-07T11:59:58.687Z,17.94
2018-02-07T12:00:58.155Z,17.94
2018-02-07T12:01:58.588Z,17.93
2018-02-07T12:02:58.028Z,17.94
2018-02-07T12:03:58.497Z,17.95
2018-02-07T12:04:58.951Z,17.95
2018-02-07T12:05:58.405Z,17.94
2018-02-07T12:06:58.852Z,17.95
2018-02-07T12:07:58.329Z,17.94
2018-02-07T12:08:58.751Z,17.94
2018-02-07T12:09:58.257Z,17.96
2018-02-07T12:10:58.673Z,17.96
2018-02-07T12:11:58.122Z,17.97
2018-02-07T12:12:58.551Z,17.96
2018-02-07T12:13:58.974Z,17.95
2018-02-07T12:14:58.410Z,17.97
2018-02-07T12:15:58.871Z,17.97
2018-02-07T12:17:58.602Z,17.97
2018-02-07T12:18:58.030Z,17.97
2018-02-07T12:19:58.489Z,17.98
2018-02-07T12:20:58.909Z,17.99
2018-02-07T12:21:58.370Z,17.98
2018-02-07T12:22:58.821Z,17.98
2018-02-07T12:23:58.258Z,18
2018-02-07T12:24:58.723Z,17.99
2018-02-07T12:25:58.433Z,17.98
2018-02-07T12:26:58.887Z,17.98
2018-02-07T12:27:58.310Z,17.99
2018-02-07T12:28:58.940Z,18
2018-02-07T12:29:58.403Z,18
2018-02-07T12:30:58.849Z,18
2018-02-07T12:31:58.368Z,18.02
2018-02-07T12:32:58.829Z,17.99
2018-02-07T12:33:58.281Z,17.99
2018-02-07T12:34:58.690Z,17.99
2018-02-07T12:35:58.174Z,17.99
2018-02-07T12:36:58.653Z,18
2018-02-07T12:37:58.246Z,18
2018-02-07T12:38:58.687Z,18
2018-02-07T12:39:58.158Z,18.01
2018-02-07T12:40:58.603Z,18
2018-02-07T12:41:58.024Z,18.02
2018-02-07T12:42:58.471Z,18.02
2018-02-07T12:43:58.958Z,18.01
2018-02-07T12:44:58.377Z,18.01
2018-02-07T12:45:58.838Z,18.01
2018-02-07T12:46:58.249Z,18.02
2018-02-07T12:47:58.676Z,18.03
2018-02-07T12:48:58.119Z,18.05
2018-02-07T12:49:58.542Z,18.01
2018-02-07T12:50:59.013Z,18.02
2018-02-07T12:51:58.461Z,18.01
2018-02-07T12:52:59.155Z,18.02
2018-02-07T12:53:58.575Z,18.03
2018-02-07T12:54:57.992Z,18.02
2018-02-07T12:55:58.467Z,18.02
2018-02-07T12:56:58.896Z,18.03
2018-02-07T12:57:58.342Z,18.03
2018-02-07T12:58:58.877Z,18.03
2018-02-07T12:59:58.347Z,18.03
2018-02-07T13:00:58.788Z,18.02
2018-02-07T13:01:58.215Z,18.03
2018-02-07T13:02:58.755Z,18.03
2018-02-07T13:03:58.180Z,18.03